This is the latest recevied weather packets stored in our database for station/object SP1BMW-13. If no packets are shown the sender has not sent any weather packets the latest 10 day(s).
| Time | Temp. | Humidity | Pressure | Rain* | Wind** | Luminosity | Snow |
|---|---|---|---|---|---|---|---|
| 1778216523 | 7.22° C | 74% | 1019.4 hPa | 0 mm | 0.45 m/s, 315° | 65 W/m² | - |
| 1778216463 | 6.67° C | 74% | 1019.5 hPa | 0 mm | 0.89 m/s, 352° | 63 W/m² | - |
| 1778216400 | 6.67° C | 73% | 1019.2 hPa | 0 mm | 0.45 m/s, 257° | 60 W/m² | - |
| 1778216340 | 6.67° C | 74% | 1019.5 hPa | 0 mm | 0.45 m/s, 347° | 57 W/m² | - |
| 1778216280 | 6.67° C | 75% | 1019.5 hPa | 0 mm | 0.45 m/s, 355° | 55 W/m² | - |
| 1778216220 | 6.67° C | 75% | 1019.4 hPa | 0 mm | 0.45 m/s, 313° | 53 W/m² | - |
| 1778216160 | 6.67° C | 75% | 1019.6 hPa | 0 mm | 0 m/s | 51 W/m² | - |
| 1778216100 | 6.67° C | 75% | 1019.5 hPa | 0 mm | 0.45 m/s, 315° | 49 W/m² | - |
| 1778216043 | 6.67° C | 75% | 1019.5 hPa | 0 mm | 0.89 m/s, 320° | 48 W/m² | - |
| 1778215980 | 6.67° C | 75% | 1019.3 hPa | 0 mm | 0 m/s | 46 W/m² | - |
| 1778215920 | 6.67° C | 74% | 1019.3 hPa | 0 mm | 0.89 m/s, 49° | 45 W/m² | - |
| 1778215863 | 6.67° C | 75% | 1019.2 hPa | 0 mm | 0.45 m/s, 22° | 44 W/m² | - |
| 1778215800 | 6.67° C | 75% | 1019.4 hPa | 0 mm | 0 m/s | 43 W/m² | - |
| 1778215745 | 6.67° C | 75% | 1019.3 hPa | 0 mm | 0 m/s | 43 W/m² | - |
| 1778215680 | 6.67° C | 75% | 1019.2 hPa | 0 mm | 0.89 m/s, 56° | 42 W/m² | - |
| 1778215623 | 6.67° C | 75% | 1019.3 hPa | 0 mm | 0.89 m/s, 55° | 42 W/m² | - |
| 1778215560 | 6.67° C | 75% | 1019.4 hPa | 0 mm | 0.89 m/s, 334° | 42 W/m² | - |
| 1778215500 | 6.67° C | 75% | 1019.3 hPa | 0 mm | 0.89 m/s, 348° | 42 W/m² | - |
| 1778215440 | 6.67° C | 75% | 1019.2 hPa | 0 mm | 0.89 m/s, 351° | 42 W/m² | - |
| 1778215380 | 6.67° C | 74% | 1019.3 hPa | 0 mm | 0.89 m/s, 350° | 42 W/m² | - |
| 1778215322 | 6.67° C | 74% | 1019.4 hPa | 0 mm | 0.45 m/s, 331° | 41 W/m² | - |
| 1778215260 | 7.22° C | 74% | 1019.2 hPa | 0 mm | 0.89 m/s, 321° | 41 W/m² | - |
| 1778215200 | 7.22° C | 74% | 1019.5 hPa | 0 mm | 0.45 m/s, 317° | 41 W/m² | - |
| 1778215140 | 7.22° C | 73% | 1019.3 hPa | 0 mm | 0.45 m/s, 28° | 42 W/m² | - |
| 1778215080 | 7.22° C | 73% | 1019.3 hPa | 0 mm | 0.45 m/s, 23° | 43 W/m² | - |
* Rain latest hour (hover to see other rain measurements)
** Current wind speed in m/s (hover to see current wind gust speed)